Time;durP1;ratioP1;P1;durP2;ratioP2;P2;SDS_P1;SDS_P2;PMS_P1;PMS_P2;Temp;Humidity;BMP_temperature;BMP_pressure;BME280_temperature;BME280_humidity;BME280_pressure;Samples;Min_cycle;Max_cycle;Signal;HPM_P1;HPM_P2
2020/12/12 00:01:37;;;;;;;12.18;11.27;;;1.00;81.60;;;;;;5097005;29;20114;-78
2020/12/12 00:04:09;;;;;;;12.55;11.65;;;0.90;83.30;;;;;;5097371;29;20058;-78
2020/12/12 00:06:40;;;;;;;12.38;11.50;;;0.90;82.80;;;;;;5098054;29;20092;-77
2020/12/12 00:09:11;;;;;;;12.90;11.95;;;0.90;82.90;;;;;;5116326;28;20046;-78
2020/12/12 00:11:43;;;;;;;12.68;11.77;;;1.00;82.10;;;;;;5096712;29;20728;-78
2020/12/12 00:14:15;;;;;;;12.80;11.90;;;0.90;82.70;;;;;;5103722;29;20039;-77
2020/12/12 00:16:50;;;;;;;12.80;11.90;;;0.90;83.20;;;;;;5106030;28;20060;-78
2020/12/12 00:19:22;;;;;;;12.40;11.50;;;0.90;83.70;;;;;;5094841;29;20048;-77
2020/12/12 00:21:54;;;;;;;12.85;11.95;;;0.90;83.90;;;;;;5103047;28;20048;-77
2020/12/12 00:24:26;;;;;;;14.30;13.20;;;0.90;83.60;;;;;;5102825;29;20048;-77
2020/12/12 00:26:58;;;;;;;13.80;12.80;;;1.00;82.60;;;;;;5101449;29;20048;-77
2020/12/12 00:29:30;;;;;;;14.02;12.93;;;1.00;82.60;;;;;;5102964;29;20505;-77
2020/12/12 00:32:01;;;;;;;13.90;12.80;;;1.00;81.60;;;;;;5099957;29;20657;-78
2020/12/12 00:34:33;;;;;;;13.82;12.82;;;1.00;81.40;;;;;;5098876;29;20303;-77
2020/12/12 00:37:04;;;;;;;14.07;12.88;;;1.00;81.20;;;;;;5097942;29;20114;-76
2020/12/12 00:39:36;;;;;;;13.55;12.45;;;1.00;81.00;;;;;;5097074;29;20075;-77
2020/12/12 00:42:08;;;;;;;13.68;12.57;;;1.10;80.90;;;;;;5090127;29;20048;-77
2020/12/12 00:44:40;;;;;;;14.38;13.13;;;1.10;80.70;;;;;;5097872;29;20536;-76
2020/12/12 00:47:12;;;;;;;13.23;12.23;;;1.10;80.70;;;;;;5096918;29;20399;-76
2020/12/12 00:49:43;;;;;;;13.32;12.32;;;1.00;80.80;;;;;;5100123;29;20124;-76
2020/12/12 00:52:15;;;;;;;13.80;12.80;;;1.00;81.40;;;;;;5113494;28;20044;-76
2020/12/12 00:54:47;;;;;;;13.32;12.25;;;0.90;82.20;;;;;;5097075;29;20476;-75
2020/12/12 00:57:18;;;;;;;13.05;12.05;;;0.90;81.60;;;;;;5101181;29;20040;-76
2020/12/12 00:59:49;;;;;;;13.43;12.40;;;1.00;81.60;;;;;;5103949;29;20181;-77
2020/12/12 01:02:21;;;;;;;12.73;11.75;;;1.00;82.00;;;;;;5100196;29;20071;-76
2020/12/12 01:04:53;;;;;;;12.95;11.98;;;1.00;82.30;;;;;;5099998;29;20051;-76
2020/12/12 01:07:24;;;;;;;12.82;11.82;;;1.00;82.20;;;;;;5102041;29;20043;-76
2020/12/12 01:09:55;;;;;;;12.75;11.77;;;1.00;82.50;;;;;;5099863;29;20040;-75
2020/12/12 01:12:27;;;;;;;13.27;12.27;;;1.00;82.30;;;;;;5098985;29;20429;-76
2020/12/12 01:14:58;;;;;;;13.13;12.23;;;1.00;82.20;;;;;;5103552;29;20100;-77
2020/12/12 01:17:32;;;;;;;12.75;11.85;;;1.10;81.60;;;;;;5083081;29;20055;-77
2020/12/12 01:20:04;;;;;;;12.80;11.90;;;1.10;81.20;;;;;;5097263;29;20656;-75
2020/12/12 01:22:36;;;;;;;12.80;11.80;;;1.10;80.90;;;;;;5093432;29;20531;-75
2020/12/12 01:25:07;;;;;;;13.23;12.23;;;1.00;80.50;;;;;;5098879;29;20103;-74
2020/12/12 01:27:39;;;;;;;12.70;11.80;;;1.00;80.40;;;;;;5098875;29;20127;-75
2020/12/12 01:30:11;;;;;;;12.75;11.85;;;0.90;81.30;;;;;;5097594;29;20047;-77
2020/12/12 01:32:42;;;;;;;12.55;11.65;;;0.80;81.10;;;;;;5096418;29;20047;-75
2020/12/12 01:35:15;;;;;;;13.00;12.00;;;0.70;81.60;;;;;;5097410;29;20660;-77
2020/12/12 01:37:46;;;;;;;12.68;11.70;;;0.80;81.60;;;;;;5100155;29;20052;-76
2020/12/12 01:40:18;;;;;;;12.65;11.65;;;0.70;81.60;;;;;;5097364;29;20529;-77
2020/12/12 01:42:50;;;;;;;12.52;11.63;;;0.70;81.60;;;;;;5094174;29;20051;-77
2020/12/12 01:45:21;;;;;;;12.77;11.77;;;0.70;81.70;;;;;;5097921;29;20075;-77
2020/12/12 01:47:52;;;;;;;12.40;11.50;;;0.70;81.30;;;;;;5098175;29;20585;-76
2020/12/12 01:50:25;;;;;;;12.73;11.73;;;0.70;81.10;;;;;;5098586;29;20044;-76
2020/12/12 01:52:59;;;;;;;12.43;11.52;;;0.80;80.90;;;;;;5097677;29;20036;-76
2020/12/12 01:55:32;;;;;;;12.93;12.02;;;0.70;80.50;;;;;;5090155;29;20049;-76
2020/12/12 01:58:03;;;;;;;13.07;11.98;;;0.70;80.60;;;;;;5099139;29;20044;-77
2020/12/12 02:00:35;;;;;;;12.57;11.68;;;0.70;80.30;;;;;;5096140;29;20115;-74
2020/12/12 02:03:09;;;;;;;12.63;11.73;;;0.60;80.70;;;;;;5099301;29;20057;-75
2020/12/12 02:05:42;;;;;;;13.10;12.10;;;0.50;81.50;;;;;;5096011;29;20518;-76
2020/12/12 02:08:19;;;;;;;13.05;12.05;;;0.50;81.30;;;;;;5112888;28;20055;-75
2020/12/12 02:10:50;;;;;;;12.82;11.82;;;0.40;81.20;;;;;;5097736;29;20111;-76
2020/12/12 02:13:22;;;;;;;12.52;11.52;;;0.30;81.10;;;;;;5096783;29;20053;-76
2020/12/12 02:15:53;;;;;;;12.90;12.00;;;0.30;81.20;;;;;;5100076;29;20050;-76
2020/12/12 02:18:25;;;;;;;12.70;11.70;;;0.30;80.90;;;;;;5101913;29;20044;-77
2020/12/12 02:20:58;;;;;;;12.40;11.50;;;0.30;80.40;;;;;;5098882;29;20105;-77
2020/12/12 02:23:30;;;;;;;12.40;11.50;;;0.40;80.00;;;;;;5098374;29;20066;-78
2020/12/12 02:26:02;;;;;;;12.15;11.25;;;0.40;79.50;;;;;;5095904;29;20561;-77
2020/12/12 02:28:52;;;;;;;12.63;11.60;;;0.40;79.50;;;;;;5097129;29;20059;-77
2020/12/12 02:31:25;;;;;;;11.63;10.82;;;0.30;79.50;;;;;;5096162;29;20040;-78
2020/12/12 02:33:57;;;;;;;12.00;11.10;;;0.30;79.00;;;;;;5097001;29;20130;-79
2020/12/12 02:36:33;;;;;;;11.70;10.80;;;0.30;79.00;;;;;;5095894;29;20895;-79
2020/12/12 02:39:07;;;;;;;12.15;11.25;;;0.30;78.70;;;;;;5093505;29;20098;-78
2020/12/12 02:41:39;;;;;;;11.73;10.82;;;0.20;78.20;;;;;;5091161;29;20048;-78
2020/12/12 02:44:12;;;;;;;11.25;10.45;;;0.20;78.00;;;;;;5088588;29;20055;-77
2020/12/12 02:46:43;;;;;;;11.63;10.82;;;0.10;78.90;;;;;;5089048;29;20063;-78
2020/12/12 02:49:15;;;;;;;11.82;10.85;;;0.10;79.90;;;;;;5090410;29;20040;-78
2020/12/12 02:51:46;;;;;;;11.20;10.40;;;0.00;79.40;;;;;;5088919;29;20054;-78
2020/12/12 02:54:18;;;;;;;11.43;10.63;;;0.00;79.60;;;;;;5093306;29;20043;-79
2020/12/12 02:56:49;;;;;;;11.60;10.80;;;0.00;80.10;;;;;;5093274;29;20067;-78
2020/12/12 02:59:21;;;;;;;11.52;10.73;;;0.00;80.30;;;;;;5091812;29;20051;-78
2020/12/12 03:01:52;;;;;;;11.35;10.55;;;0.00;79.80;;;;;;5087466;29;20055;-78
2020/12/12 03:04:24;;;;;;;11.32;10.52;;;0.00;79.60;;;;;;5091916;29;20051;-78
2020/12/12 03:06:55;;;;;;;11.80;10.90;;;0.00;80.00;;;;;;5093563;29;20648;-78
2020/12/12 03:09:26;;;;;;;11.13;10.32;;;-0.10;81.30;;;;;;5091232;29;20044;-78
2020/12/12 03:11:58;;;;;;;11.27;10.40;;;0.00;81.20;;;;;;5089621;29;20104;-78
2020/12/12 03:14:29;;;;;;;12.20;11.27;;;-0.10;80.70;;;;;;5107184;28;20051;-78
2020/12/12 03:17:01;;;;;;;11.80;10.82;;;0.00;80.10;;;;;;5094871;29;20422;-78
2020/12/12 03:19:32;;;;;;;11.18;10.27;;;0.00;79.80;;;;;;5091337;29;20923;-78
2020/12/12 03:22:05;;;;;;;11.05;10.25;;;0.10;79.50;;;;;;5090475;29;20055;-78
2020/12/12 03:24:36;;;;;;;11.05;10.25;;;0.00;79.00;;;;;;5092906;29;20047;-77
2020/12/12 03:27:08;;;;;;;11.85;10.95;;;0.10;79.20;;;;;;5095436;29;20455;-78
2020/12/12 03:29:40;;;;;;;12.02;11.13;;;0.00;81.00;;;;;;5087561;29;20051;-78
2020/12/12 03:32:15;;;;;;;11.88;10.98;;;0.00;81.70;;;;;;5091293;29;20044;-78
2020/12/12 03:34:46;;;;;;;11.30;10.50;;;0.00;80.60;;;;;;5089079;29;20043;-78
2020/12/12 03:37:18;;;;;;;11.63;10.82;;;0.00;80.50;;;;;;5094453;29;20056;-78
2020/12/12 03:39:49;;;;;;;11.38;10.57;;;0.00;80.20;;;;;;5087482;29;20134;-78
2020/12/12 03:42:21;;;;;;;12.48;11.48;;;0.00;79.90;;;;;;5095286;29;20056;-78
2020/12/12 03:44:52;;;;;;;11.82;10.93;;;0.10;80.10;;;;;;5091870;29;20051;-78
2020/12/12 03:47:24;;;;;;;12.20;11.30;;;0.10;79.70;;;;;;5090752;29;20086;-78
2020/12/12 03:49:56;;;;;;;12.13;11.23;;;0.10;79.50;;;;;;5090096;29;20038;-78
2020/12/12 03:52:27;;;;;;;12.30;11.30;;;0.10;79.50;;;;;;5093162;29;20035;-78
2020/12/12 03:54:58;;;;;;;12.30;11.40;;;0.10;79.50;;;;;;5089370;29;20103;-78
2020/12/12 03:57:30;;;;;;;12.68;11.68;;;0.10;79.80;;;;;;5089810;29;20764;-77
2020/12/12 04:00:05;;;;;;;12.43;11.43;;;0.10;80.80;;;;;;5088763;29;20159;-77
2020/12/12 04:02:37;;;;;;;12.57;11.57;;;0.10;81.80;;;;;;5093098;29;20063;-77
2020/12/12 04:05:08;;;;;;;12.05;11.15;;;0.10;82.00;;;;;;5090288;29;20395;-77
2020/12/12 04:07:40;;;;;;;12.23;11.32;;;0.10;81.50;;;;;;5090763;29;20079;-77
2020/12/12 04:10:11;;;;;;;12.40;11.40;;;0.10;81.20;;;;;;5078244;29;20044;-77
2020/12/12 04:12:43;;;;;;;12.88;11.93;;;0.10;81.30;;;;;;5097822;29;20055;-78
2020/12/12 04:15:15;;;;;;;12.50;11.50;;;0.10;81.80;;;;;;5094272;29;20059;-76
2020/12/12 04:17:46;;;;;;;12.43;11.52;;;0.20;81.80;;;;;;5093821;29;20052;-75
2020/12/12 04:20:18;;;;;;;13.02;12.02;;;0.20;81.40;;;;;;5095328;29;20102;-77
2020/12/12 04:22:49;;;;;;;12.05;11.15;;;0.20;81.60;;;;;;5098065;28;20102;-78
2020/12/12 04:25:21;;;;;;;12.50;11.50;;;0.20;81.90;;;;;;5097390;29;20354;-78
2020/12/12 04:27:52;;;;;;;12.00;11.10;;;0.20;82.80;;;;;;5094015;29;20502;-77
2020/12/12 04:30:24;;;;;;;12.13;11.23;;;0.20;82.90;;;;;;5095219;29;20055;-78
2020/12/12 04:32:55;;;;;;;12.32;11.43;;;0.30;84.20;;;;;;5095771;29;20083;-78
2020/12/12 04:35:27;;;;;;;12.35;11.30;;;0.30;83.90;;;;;;5079103;29;20545;-78
2020/12/12 04:37:58;;;;;;;12.43;11.52;;;0.30;84.40;;;;;;5090881;29;20486;-78
2020/12/12 04:40:30;;;;;;;11.98;11.07;;;0.30;84.50;;;;;;5093101;29;20839;-78
2020/12/12 04:43:02;;;;;;;12.82;11.88;;;0.30;84.40;;;;;;5093861;29;20096;-79
2020/12/12 04:45:36;;;;;;;12.48;11.57;;;0.30;83.60;;;;;;5095033;29;20051;-78
2020/12/12 04:48:07;;;;;;;12.07;11.15;;;0.20;81.90;;;;;;5087213;29;20048;-78
2020/12/12 04:50:39;;;;;;;12.25;11.35;;;0.10;82.40;;;;;;5083775;29;20079;-78
2020/12/12 04:53:18;;;;;;;12.45;11.55;;;0.10;82.20;;;;;;5089708;29;20074;-78
2020/12/12 04:55:51;;;;;;;12.07;11.18;;;0.10;81.80;;;;;;5093908;29;20724;-78
2020/12/12 04:58:27;;;;;;;11.80;10.90;;;0.10;81.30;;;;;;5090874;29;20036;-77
2020/12/12 05:00:59;;;;;;;12.60;11.60;;;0.20;81.20;;;;;;5091602;29;20108;-77
2020/12/12 05:03:32;;;;;;;12.50;11.50;;;0.20;80.90;;;;;;5091359;29;20048;-77
2020/12/12 05:06:04;;;;;;;12.40;11.50;;;0.10;80.70;;;;;;5093536;29;20399;-78
2020/12/12 05:08:35;;;;;;;12.77;11.88;;;0.10;81.40;;;;;;5088216;29;20048;-78
2020/12/12 05:11:07;;;;;;;13.15;12.15;;;0.10;81.20;;;;;;5092969;29;20103;-77
2020/12/12 05:13:38;;;;;;;12.80;11.80;;;0.20;81.20;;;;;;5097579;29;20036;-77
2020/12/12 05:16:09;;;;;;;13.05;12.05;;;0.20;80.90;;;;;;5094738;29;20046;-79
2020/12/12 05:18:42;;;;;;;13.20;12.20;;;0.20;80.70;;;;;;5082039;29;20124;-77
2020/12/12 05:21:15;;;;;;;13.82;12.82;;;0.30;80.70;;;;;;5093750;29;20793;-77
2020/12/12 05:23:46;;;;;;;12.77;11.88;;;0.30;80.60;;;;;;5098208;29;20074;-77
2020/12/12 05:26:24;;;;;;;12.10;11.20;;;0.30;80.80;;;;;;5098289;29;20054;-77
2020/12/12 05:29:00;;;;;;;12.23;11.32;;;0.30;81.00;;;;;;5098561;29;20091;-78
2020/12/12 05:31:32;;;;;;;12.90;11.90;;;0.30;80.80;;;;;;5097512;29;20052;-77
2020/12/12 05:34:13;;;;;;;12.57;11.68;;;0.30;80.80;;;;;;5084788;29;20546;-78
2020/12/12 05:36:45;;;;;;;12.98;11.88;;;0.40;80.70;;;;;;5094150;29;20047;-77
2020/12/12 05:39:17;;;;;;;12.60;11.70;;;0.40;81.00;;;;;;5095025;29;20119;-77
2020/12/12 05:41:49;;;;;;;13.00;12.00;;;0.40;81.10;;;;;;5096523;29;20044;-77
2020/12/12 05:44:20;;;;;;;14.57;13.38;;;0.40;81.40;;;;;;5099258;29;20047;-77
2020/12/12 05:46:51;;;;;;;13.48;12.38;;;0.30;82.10;;;;;;5093203;29;20107;-77
2020/12/12 05:49:23;;;;;;;13.60;12.43;;;0.30;82.00;;;;;;5096914;29;20356;-77
2020/12/12 05:51:56;;;;;;;13.55;12.50;;;0.30;82.50;;;;;;5092970;29;20059;-78
2020/12/12 05:54:29;;;;;;;12.95;11.95;;;0.30;82.80;;;;;;5096855;29;20458;-78
2020/12/12 05:57:01;;;;;;;12.52;11.52;;;0.20;83.30;;;;;;5096788;29;20054;-79
2020/12/12 05:59:33;;;;;;;12.75;11.82;;;0.20;83.90;;;;;;5081662;29;20146;-78
2020/12/12 06:02:06;;;;;;;13.27;12.20;;;0.10;84.50;;;;;;5093402;29;20466;-79
2020/12/12 06:04:48;;;;;;;13.13;12.13;;;0.10;84.80;;;;;;5101453;29;20122;-77
2020/12/12 06:07:30;;;;;;;14.00;12.90;;;0.10;85.00;;;;;;5084512;29;20056;-79
2020/12/12 06:10:06;;;;;;;14.32;13.10;;;0.10;85.60;;;;;;5095654;29;20051;-78
2020/12/12 06:12:39;;;;;;;13.50;12.45;;;0.20;86.50;;;;;;5096170;29;20066;-78
2020/12/12 06:15:17;;;;;;;13.57;12.57;;;0.20;85.80;;;;;;5100422;29;20102;-80
2020/12/12 06:18:26;;;;;;;13.73;12.73;;;0.30;86.00;;;;;;5094819;29;20106;-80
2020/12/12 06:21:05;;;;;;;13.68;12.68;;;0.40;85.50;;;;;;5099837;29;20545;-80
2020/12/12 06:23:39;;;;;;;13.60;12.60;;;0.50;85.80;;;;;;5096801;29;20101;-80
2020/12/12 06:26:13;;;;;;;13.90;12.90;;;0.50;86.40;;;;;;5096901;29;20122;-80
2020/12/12 06:28:45;;;;;;;13.35;12.35;;;0.60;86.20;;;;;;5096292;29;20099;-81
2020/12/12 06:31:17;;;;;;;13.60;12.60;;;0.70;86.50;;;;;;5097427;29;20063;-81
2020/12/12 06:33:50;;;;;;;13.93;12.93;;;0.70;86.10;;;;;;5098469;29;20646;-81
2020/12/12 06:36:30;;;;;;;12.98;11.98;;;0.80;86.10;;;;;;5097646;29;20506;-80
2020/12/12 06:39:26;;;;;;;13.40;12.40;;;0.80;85.80;;;;;;5096656;29;20530;-80
2020/12/12 06:41:58;;;;;;;13.88;12.88;;;0.90;86.10;;;;;;5095447;29;20143;-80
2020/12/12 06:44:38;;;;;;;13.00;12.10;;;0.90;86.10;;;;;;5094687;29;20039;-81
2020/12/12 06:47:09;;;;;;;13.63;12.63;;;0.90;86.10;;;;;;5097439;29;20104;-80
2020/12/12 06:49:42;;;;;;;13.63;12.63;;;0.90;85.10;;;;;;5096451;29;20130;-80
2020/12/12 06:52:29;;;;;;;13.02;12.13;;;0.90;85.20;;;;;;5096969;29;20126;-81
2020/12/12 06:55:08;;;;;;;14.07;13.07;;;0.90;85.50;;;;;;5096855;29;20091;-79
2020/12/12 06:57:42;;;;;;;12.23;11.33;;;1.00;85.50;;;;;;5095144;29;20135;-80
2020/12/12 07:00:32;;;;;;;12.55;11.65;;;1.00;85.40;;;;;;5092962;29;20052;-80
2020/12/12 07:03:06;;;;;;;17.60;15.95;;;1.10;85.60;;;;;;5095837;29;20047;-79
2020/12/12 07:05:38;;;;;;;14.10;13.00;;;1.10;85.00;;;;;;5094979;29;20113;-78
2020/12/12 07:08:11;;;;;;;13.63;12.63;;;1.10;84.60;;;;;;5095190;29;20056;-78
2020/12/12 07:10:44;;;;;;;13.00;12.10;;;1.10;84.40;;;;;;5098670;28;20434;-78
2020/12/12 07:13:16;;;;;;;12.10;11.20;;;1.10;84.90;;;;;;5084700;29;20577;-78
2020/12/12 07:15:47;;;;;;;12.40;11.50;;;1.10;85.00;;;;;;5098645;28;20059;-78
2020/12/12 07:18:21;;;;;;;13.20;12.20;;;1.10;85.10;;;;;;5089072;29;20506;-77
2020/12/12 07:20:53;;;;;;;12.18;11.38;;;1.20;85.10;;;;;;5095511;28;20052;-78
2020/12/12 07:23:25;;;;;;;14.40;13.25;;;1.20;85.10;;;;;;5093717;29;20112;-78
2020/12/12 07:25:57;;;;;;;13.23;12.23;;;1.20;84.20;;;;;;5092877;29;21223;-76
2020/12/12 07:28:29;;;;;;;12.98;12.05;;;1.20;84.50;;;;;;5089505;29;20039;-77
2020/12/12 07:31:04;;;;;;;12.32;11.43;;;1.20;84.60;;;;;;5085782;29;20044;-78
2020/12/12 07:33:35;;;;;;;17.02;15.30;;;1.30;84.80;;;;;;5094871;29;20151;-75
2020/12/12 07:36:07;;;;;;;40.20;27.63;;;1.30;84.60;;;;;;5095053;29;20059;-75
2020/12/12 07:38:40;;;;;;;16.83;15.25;;;1.30;84.00;;;;;;5090391;29;20754;-75
2020/12/12 07:41:13;;;;;;;14.25;13.05;;;1.30;82.80;;;;;;5088931;29;20047;-75
2020/12/12 07:43:56;;;;;;;13.43;12.40;;;1.20;82.50;;;;;;5089639;29;20048;-77
2020/12/12 07:46:48;;;;;;;13.60;12.50;;;1.20;83.00;;;;;;5086206;29;20047;-77
2020/12/12 07:49:19;;;;;;;12.93;11.93;;;1.20;83.00;;;;;;5074980;29;20517;-75
2020/12/12 07:52:03;;;;;;;12.70;11.73;;;1.20;83.40;;;;;;5091612;29;20074;-76
2020/12/12 07:55:03;;;;;;;12.50;11.57;;;1.30;83.80;;;;;;5090083;29;20442;-75
2020/12/12 07:57:39;;;;;;;13.07;12.07;;;1.40;83.90;;;;;;5087359;29;20115;-74
2020/12/12 08:00:12;;;;;;;15.93;14.52;;;1.40;83.90;;;;;;5086292;29;20528;-75
2020/12/12 08:02:45;;;;;;;13.77;12.60;;;1.50;83.10;;;;;;5088694;29;20429;-76
2020/12/12 08:05:19;;;;;;;14.02;12.82;;;1.60;82.90;;;;;;5087620;29;20047;-74
2020/12/12 08:07:51;;;;;;;13.23;12.13;;;1.60;82.60;;;;;;5088303;29;20742;-76
2020/12/12 08:10:35;;;;;;;12.75;11.65;;;1.60;81.70;;;;;;5087122;28;20050;-75
2020/12/12 08:13:06;;;;;;;13.60;12.50;;;1.50;81.80;;;;;;5085509;29;20055;-77
2020/12/12 08:15:43;;;;;;;13.25;12.15;;;1.50;82.30;;;;;;5089299;29;20047;-77
2020/12/12 08:18:15;;;;;;;13.88;12.77;;;1.60;82.00;;;;;;5088681;29;20127;-76
2020/12/12 08:20:46;;;;;;;13.45;12.45;;;1.70;82.50;;;;;;5087396;29;20044;-77
2020/12/12 08:23:18;;;;;;;13.88;12.68;;;1.80;81.90;;;;;;5088211;29;20518;-77
2020/12/12 08:25:50;;;;;;;14.13;13.02;;;1.90;82.10;;;;;;5086472;29;20523;-75
2020/12/12 08:28:21;;;;;;;13.93;12.82;;;2.00;81.80;;;;;;5077989;29;20044;-76
2020/12/12 08:30:53;;;;;;;13.10;12.00;;;2.10;81.80;;;;;;5076733;29;20048;-75
2020/12/12 08:33:24;;;;;;;13.20;12.20;;;2.20;81.40;;;;;;5091444;29;20744;-75
2020/12/12 08:36:08;;;;;;;13.15;12.15;;;2.20;81.20;;;;;;5084269;29;20650;-75
2020/12/12 08:38:42;;;;;;;13.60;12.60;;;2.30;81.50;;;;;;5087207;29;20044;-77
2020/12/12 08:41:13;;;;;;;13.57;12.50;;;2.40;81.40;;;;;;5086856;29;20059;-76
2020/12/12 08:43:45;;;;;;;14.30;13.10;;;2.40;81.20;;;;;;5091819;29;20055;-76
2020/12/12 08:46:17;;;;;;;13.93;12.82;;;2.50;81.10;;;;;;5094306;29;20542;-78
2020/12/12 08:48:48;;;;;;;14.02;12.93;;;2.50;80.20;;;;;;5082844;29;20078;-76
2020/12/12 08:51:25;;;;;;;15.75;14.35;;;2.60;80.40;;;;;;5096237;29;20040;-75
2020/12/12 08:53:58;;;;;;;15.35;13.23;;;2.60;80.20;;;;;;5096716;29;20039;-74
2020/12/12 08:56:30;;;;;;;13.63;12.43;;;2.60;80.20;;;;;;5095440;29;20590;-77
2020/12/12 08:59:06;;;;;;;13.60;12.50;;;2.50;80.70;;;;;;5079546;29;20079;-78
2020/12/12 09:01:44;;;;;;;13.15;12.05;;;2.60;80.60;;;;;;5081438;29;20126;-76
2020/12/12 09:07:21;;;;;;;14.57;13.38;;;2.50;79.70;;;;;;4987067;29;20053;-78
2020/12/12 09:10:07;;;;;;;14.15;13.05;;;2.30;80.00;;;;;;4995229;29;20669;-77
2020/12/12 09:12:49;;;;;;;12.73;11.73;;;2.30;80.60;;;;;;5006915;29;20049;-76
2020/12/12 09:15:23;;;;;;;12.15;11.15;;;2.40;81.10;;;;;;5010183;29;20062;-77
2020/12/12 09:18:01;;;;;;;12.23;11.18;;;2.50;81.50;;;;;;4999806;29;20046;-77
2020/12/12 09:20:33;;;;;;;12.52;11.55;;;2.60;81.70;;;;;;4993972;29;20050;-77
2020/12/12 09:23:04;;;;;;;12.63;11.65;;;2.70;81.40;;;;;;4994710;29;20042;-78
2020/12/12 09:25:35;;;;;;;12.55;11.55;;;2.80;81.50;;;;;;4994285;29;20556;-78
2020/12/12 09:28:07;;;;;;;13.07;12.07;;;3.00;81.30;;;;;;4995700;29;20344;-79
2020/12/12 09:30:38;;;;;;;13.88;12.77;;;3.00;80.90;;;;;;4990021;29;20077;-77
2020/12/12 09:33:10;;;;;;;17.73;16.02;;;3.10;80.60;;;;;;4999743;29;20069;-77
2020/12/12 09:35:41;;;;;;;13.18;12.07;;;3.20;79.40;;;;;;5004981;29;20066;-79
2020/12/12 09:38:13;;;;;;;15.50;14.20;;;3.20;79.80;;;;;;4984006;29;20061;-77
2020/12/12 09:40:49;;;;;;;14.70;13.50;;;3.30;79.40;;;;;;4993419;29;20046;-78
2020/12/12 09:43:37;;;;;;;13.88;12.77;;;3.30;78.60;;;;;;4990057;29;20053;-77
2020/12/12 09:46:09;;;;;;;15.25;13.95;;;3.40;79.60;;;;;;4994665;29;20052;-78
2020/12/12 09:48:41;;;;;;;16.38;14.88;;;3.50;79.80;;;;;;4993522;29;20050;-79
2020/12/12 09:51:14;;;;;;;15.43;14.00;;;3.70;79.40;;;;;;4995195;29;20110;-77
2020/12/12 09:53:46;;;;;;;15.82;14.40;;;3.80;79.20;;;;;;4992537;29;20122;-78
2020/12/12 09:56:18;;;;;;;15.15;13.85;;;3.90;79.20;;;;;;4996164;29;20052;-78
2020/12/12 09:58:49;;;;;;;14.35;13.15;;;4.00;77.40;;;;;;4995093;29;20069;-77
2020/12/12 10:01:21;;;;;;;14.10;12.90;;;3.90;77.90;;;;;;4993035;29;20057;-79
2020/12/12 10:03:53;;;;;;;13.52;12.43;;;3.90;77.00;;;;;;4993336;29;20125;-77
2020/12/12 10:06:24;;;;;;;13.10;12.00;;;3.90;78.50;;;;;;4992555;29;20051;-77
2020/12/12 10:08:56;;;;;;;13.15;12.10;;;3.90;77.80;;;;;;4994618;29;20054;-78
2020/12/12 10:11:27;;;;;;;14.15;12.95;;;3.90;78.60;;;;;;4998342;29;20043;-79
2020/12/12 10:13:59;;;;;;;15.27;13.98;;;4.00;78.40;;;;;;4993533;29;20046;-78
2020/12/12 10:16:30;;;;;;;14.43;13.25;;;4.10;78.20;;;;;;4992671;29;20053;-78
2020/12/12 10:19:02;;;;;;;15.10;13.90;;;4.20;78.30;;;;;;4992157;29;20050;-79
2020/12/12 10:21:33;;;;;;;14.43;13.23;;;4.20;78.40;;;;;;4993595;29;20110;-78
2020/12/12 10:24:05;;;;;;;13.70;12.60;;;4.30;77.50;;;;;;4990302;29;20107;-79
2020/12/12 10:26:36;;;;;;;14.00;12.90;;;4.30;76.60;;;;;;4988437;29;20259;-79
2020/12/12 10:29:07;;;;;;;14.13;13.00;;;4.30;77.10;;;;;;4989451;29;20042;-78
2020/12/12 10:31:39;;;;;;;14.52;13.35;;;4.30;77.40;;;;;;4990610;29;20053;-76
2020/12/12 10:34:11;;;;;;;13.35;12.10;;;4.30;76.10;;;;;;4989327;29;20045;-77
2020/12/12 10:36:42;;;;;;;13.35;12.32;;;4.30;76.90;;;;;;4975766;29;20068;-78
2020/12/12 10:39:16;;;;;;;15.18;13.65;;;4.30;77.00;;;;;;4985929;29;20069;-79
2020/12/12 10:41:50;;;;;;;14.20;13.10;;;4.40;77.00;;;;;;4991731;29;20118;-80
2020/12/12 10:44:22;;;;;;;15.15;13.95;;;4.50;77.90;;;;;;4991503;29;20071;-81
2020/12/12 10:46:53;;;;;;;14.70;13.50;;;4.50;77.00;;;;;;4984327;29;20046;-80
2020/12/12 10:49:25;;;;;;;14.88;13.57;;;4.40;75.70;;;;;;4985960;29;20046;-78
2020/12/12 10:51:57;;;;;;;14.63;13.32;;;4.30;75.80;;;;;;4986040;29;20477;-80
2020/12/12 10:54:28;;;;;;;14.57;13.38;;;4.40;77.60;;;;;;4985200;29;20578;-78
2020/12/12 10:57:00;;;;;;;14.63;13.43;;;4.40;77.60;;;;;;4998148;29;20553;-78
2020/12/12 10:59:31;;;;;;;15.57;14.18;;;4.60;77.40;;;;;;4986433;29;20054;-79
2020/12/12 11:02:03;;;;;;;22.83;17.45;;;4.60;76.90;;;;;;4996692;29;20512;-79
2020/12/12 11:04:35;;;;;;;16.73;15.13;;;4.50;76.50;;;;;;4990366;29;20102;-77
2020/12/12 11:07:10;;;;;;;14.68;13.48;;;4.60;76.40;;;;;;4987063;29;20054;-78
2020/12/12 11:09:43;;;;;;;15.00;13.80;;;4.60;75.40;;;;;;4996455;29;20532;-78
2020/12/12 11:12:14;;;;;;;14.40;13.20;;;4.70;76.60;;;;;;4985607;29;20509;-78
2020/12/12 11:14:48;;;;;;;14.27;13.07;;;4.70;76.70;;;;;;4990067;29;20046;-78
2020/12/12 11:17:20;;;;;;;15.68;14.32;;;4.80;76.60;;;;;;4988127;29;20046;-77
2020/12/12 11:19:52;;;;;;;15.07;13.65;;;4.80;77.10;;;;;;4987773;29;20110;-77
2020/12/12 11:22:23;;;;;;;15.48;14.18;;;4.90;75.70;;;;;;4976240;29;20061;-77
2020/12/12 11:24:55;;;;;;;15.07;13.88;;;4.90;76.10;;;;;;4973181;29;20062;-77
2020/12/12 11:27:26;;;;;;;15.10;13.85;;;4.90;75.70;;;;;;4973979;29;20050;-76
2020/12/12 11:29:57;;;;;;;15.05;13.73;;;5.00;75.80;;;;;;4983517;29;20110;-77
2020/12/12 11:32:29;;;;;;;15.73;14.43;;;5.00;76.40;;;;;;4984375;29;20102;-78
2020/12/12 11:35:15;;;;;;;15.00;13.80;;;5.00;77.10;;;;;;4989336;29;20042;-79
2020/12/12 11:40:39;;;;;;;17.00;15.30;;;5.20;77.00;;;;;;4986374;29;20057;-78
2020/12/12 11:44:10;;;;;;;16.38;15.05;;;5.30;76.30;;;;;;4988635;29;20046;-80
2020/12/12 11:46:25;;;;;;;15.35;13.90;;;5.40;75.90;;;;;;4985964;29;20082;-81
2020/12/12 11:48:58;;;;;;;15.23;13.93;;;5.40;74.50;;;;;;4984991;29;20038;-79
2020/12/12 11:51:34;;;;;;;14.80;13.60;;;5.50;75.50;;;;;;4989645;29;20091;-77
2020/12/12 11:54:06;;;;;;;14.90;13.70;;;5.50;75.50;;;;;;4987021;29;20509;-78
2020/12/12 11:56:37;;;;;;;14.93;13.73;;;5.60;74.40;;;;;;4984271;29;20039;-78
2020/12/12 11:59:11;;;;;;;14.63;13.43;;;5.50;74.20;;;;;;4985422;29;20042;-79
2020/12/12 12:01:43;;;;;;;14.80;13.50;;;5.50;74.40;;;;;;4960087;29;20046;-78
2020/12/12 12:04:14;;;;;;;14.68;13.38;;;5.60;75.10;;;;;;4996328;29;20054;-81
2020/12/12 12:06:46;;;;;;;15.38;14.07;;;5.50;73.60;;;;;;4976851;29;20057;-80
2020/12/12 12:12:08;;;;;;;;;;;5.60;74.10;;;;;;4991344;29;20050;-77
2020/12/12 12:14:40;;;;;;;16.00;14.60;;;5.60;74.90;;;;;;4993466;29;20368;-78
2020/12/12 12:17:12;;;;;;;16.85;15.27;;;5.70;73.70;;;;;;4995984;29;20042;-78
2020/12/12 12:19:43;;;;;;;15.90;14.43;;;5.70;73.60;;;;;;4994754;29;20052;-79
2020/12/12 12:22:15;;;;;;;14.80;13.55;;;5.70;73.60;;;;;;4986048;29;20106;-79
2020/12/12 12:24:46;;;;;;;16.90;15.30;;;5.50;74.10;;;;;;4998042;29;20106;-79
2020/12/12 12:27:18;;;;;;;17.08;15.27;;;5.50;74.00;;;;;;4994001;29;20073;-79
2020/12/12 12:29:50;;;;;;;16.60;15.20;;;5.30;74.40;;;;;;4997926;29;20509;-80
2020/12/12 12:32:21;;;;;;;16.13;14.60;;;5.40;75.80;;;;;;4997948;29;20042;-80
2020/12/12 12:34:53;;;;;;;16.55;15.00;;;5.40;75.90;;;;;;4996595;29;20046;-78
2020/12/12 12:37:24;;;;;;;17.52;15.50;;;5.50;75.60;;;;;;4995212;29;20537;-77
2020/12/12 12:39:56;;;;;;;17.15;15.55;;;5.60;75.80;;;;;;4995820;29;20081;-82
2020/12/12 12:42:28;;;;;;;16.90;15.35;;;5.60;75.50;;;;;;4994337;29;20098;-79
2020/12/12 12:44:59;;;;;;;17.08;15.57;;;5.70;75.40;;;;;;4994295;29;20049;-80
2020/12/12 12:47:31;;;;;;;16.85;15.35;;;5.80;75.20;;;;;;4996507;29;20477;-81
2020/12/12 12:50:03;;;;;;;16.58;15.07;;;5.70;74.10;;;;;;4994193;29;20046;-77
2020/12/12 12:52:35;;;;;;;16.65;14.95;;;5.80;74.90;;;;;;4998319;29;20129;-83
2020/12/12 12:55:09;;;;;;;16.23;14.63;;;5.80;74.60;;;;;;4995828;29;20042;-82
2020/12/12 12:57:40;;;;;;;17.33;15.60;;;5.80;74.90;;;;;;4995856;29;20061;-78
2020/12/12 13:00:12;;;;;;;15.80;14.18;;;5.80;75.30;;;;;;4980567;29;20056;-82
2020/12/12 13:02:43;;;;;;;16.67;15.18;;;5.90;75.00;;;;;;4997879;29;20050;-82
2020/12/12 13:05:15;;;;;;;16.00;14.50;;;5.80;74.70;;;;;;5000896;29;20057;-82
2020/12/12 13:07:46;;;;;;;23.60;21.30;;;5.90;75.00;;;;;;4983124;29;20046;-81
2020/12/12 13:10:31;;;;;;;17.55;15.90;;;5.90;74.60;;;;;;4995035;29;20517;-79
2020/12/12 13:13:03;;;;;;;24.65;22.40;;;5.90;74.60;;;;;;4996935;29;20115;-78
2020/12/12 13:15:35;;;;;;;16.90;15.45;;;5.90;74.70;;;;;;4995545;29;20054;-78
2020/12/12 13:18:18;;;;;;;16.55;15.15;;;5.90;74.60;;;;;;4997196;29;20066;-77